Time;durP1;ratioP1;P1;durP2;ratioP2;P2;SDS_P1;SDS_P2;PMS_P1;PMS_P2;Temp;Humidity;BMP_temperature;BMP_pressure;BME280_temperature;BME280_humidity;BME280_pressure;Samples;Min_cycle;Max_cycle;Signal;HPM_P1;HPM_P2
2023/01/16 00:00:40;;;;;;;16.65;3.05;;;8.30;99.90;;;7.41;100.00;98678.03;4150804;28;20029;-78
2023/01/16 00:02:41;;;;;;;17.15;2.90;;;8.30;99.90;;;7.16;100.00;98656.59;4151639;28;20022;-78
2023/01/16 00:04:41;;;;;;;16.80;2.58;;;8.20;99.90;;;7.08;100.00;98654.06;4150737;28;20034;-78
2023/01/16 00:06:42;;;;;;;13.77;2.63;;;8.10;99.90;;;7.05;100.00;98645.75;4152115;28;20512;-78
2023/01/16 00:08:43;;;;;;;18.73;3.95;;;8.00;99.90;;;6.93;100.00;98649.88;4151143;28;20034;-78
2023/01/16 00:10:45;;;;;;;18.70;3.22;;;7.90;99.90;;;6.96;100.00;98647.66;4150943;28;20101;-78
2023/01/16 00:12:48;;;;;;;17.92;4.47;;;7.90;99.90;;;7.17;100.00;98636.41;4150449;28;20058;-78
2023/01/16 00:14:49;;;;;;;18.02;4.57;;;8.00;99.90;;;7.17;100.00;98620.66;4134460;28;20030;-78
2023/01/16 00:16:50;;;;;;;15.48;2.53;;;8.00;99.90;;;7.25;100.00;98625.81;4156185;28;20049;-78
2023/01/16 00:18:51;;;;;;;21.52;2.80;;;8.10;99.90;;;7.15;100.00;98601.69;4156912;28;20022;-78
2023/01/16 00:20:52;;;;;;;13.88;3.35;;;8.00;99.90;;;7.15;100.00;98610.38;4151860;28;20034;-78
2023/01/16 00:22:52;;;;;;;23.98;4.50;;;8.00;99.90;;;7.37;100.00;98600.72;4150778;28;20497;-78
2023/01/16 00:24:53;;;;;;;28.23;4.50;;;8.00;99.90;;;7.39;100.00;98603.16;4160155;28;20060;-78
2023/01/16 00:26:54;;;;;;;19.50;4.43;;;8.10;99.90;;;7.47;100.00;98595.94;4162241;28;20091;-78
2023/01/16 00:28:55;;;;;;;25.00;6.13;;;8.20;99.90;;;7.32;100.00;98584.72;4153353;28;20044;-78
2023/01/16 00:30:56;;;;;;;25.63;5.38;;;8.20;99.90;;;7.49;100.00;98587.91;4150887;28;20623;-78
2023/01/16 00:32:57;;;;;;;23.23;4.03;;;8.30;99.90;;;7.42;100.00;98576.53;4151925;28;20033;-78
2023/01/16 00:34:58;;;;;;;30.20;5.15;;;8.30;99.90;;;7.58;100.00;98576.28;4152028;28;20512;-78
2023/01/16 00:36:59;;;;;;;25.80;4.45;;;8.30;99.90;;;7.52;100.00;98577.84;4158953;28;20017;-78
2023/01/16 00:39:00;;;;;;;20.90;4.40;;;8.40;99.90;;;7.66;100.00;98555.97;4153750;28;20057;-78
2023/01/16 00:41:01;;;;;;;20.63;4.53;;;8.50;99.90;;;7.67;100.00;98562.03;4137178;28;20426;-79
2023/01/16 00:43:02;;;;;;;36.13;6.93;;;8.50;99.90;;;7.59;100.00;98552.47;4153542;28;20132;-79
2023/01/16 00:45:03;;;;;;;32.80;5.95;;;8.50;99.90;;;7.48;100.00;98554.81;4153463;28;20038;-78
2023/01/16 00:47:05;;;;;;;26.75;5.18;;;8.50;99.90;;;7.56;100.00;98554.66;4156981;28;20073;-79
2023/01/16 00:49:06;;;;;;;28.00;5.95;;;8.50;99.90;;;7.51;100.00;98539.50;4153585;28;20026;-79
2023/01/16 00:51:06;;;;;;;27.95;5.60;;;8.50;99.90;;;7.48;100.00;98547.75;4153566;28;20093;-78
2023/01/16 00:53:07;;;;;;;25.40;5.35;;;8.40;99.90;;;7.50;100.00;98553.59;4154824;28;20029;-78
2023/01/16 00:55:08;;;;;;;22.08;4.13;;;8.40;99.90;;;7.46;100.00;98544.50;4153455;28;20028;-79
2023/01/16 00:57:09;;;;;;;31.17;5.60;;;8.40;99.90;;;7.48;100.00;98524.13;4158832;28;20034;-79
2023/01/16 00:59:11;;;;;;;24.77;5.93;;;8.30;99.90;;;7.38;100.00;98512.38;4153693;28;20029;-78
2023/01/16 01:01:12;;;;;;;20.52;5.47;;;8.30;99.90;;;7.28;100.00;98512.69;4153360;28;20022;-78
2023/01/16 01:03:12;;;;;;;21.90;4.10;;;8.30;99.90;;;7.43;100.00;98499.50;4154543;28;20022;-78
2023/01/16 01:05:14;;;;;;;21.25;3.60;;;8.20;99.90;;;7.58;100.00;98498.41;4154464;28;20050;-79
2023/01/16 01:07:15;;;;;;;13.70;3.53;;;8.30;99.90;;;7.68;100.00;98490.97;4157761;28;20022;-78
2023/01/16 01:09:16;;;;;;;19.75;4.00;;;8.40;99.90;;;7.50;100.00;98495.91;4153073;28;20034;-78
2023/01/16 01:11:17;;;;;;;25.02;4.55;;;8.50;99.90;;;7.52;100.00;98495.72;4153228;28;20532;-79
2023/01/16 01:13:17;;;;;;;23.95;4.45;;;8.40;99.90;;;7.59;100.00;98489.50;4152927;28;20022;-79
2023/01/16 01:15:18;;;;;;;25.00;5.35;;;8.40;99.90;;;7.87;100.00;98520.97;4165209;28;20030;-79
2023/01/16 01:17:19;;;;;;;24.25;3.38;;;8.50;99.90;;;7.76;100.00;98521.53;4155136;28;20113;-79
2023/01/16 01:19:20;;;;;;;22.70;3.72;;;8.60;99.90;;;7.37;100.00;98523.84;4169279;28;20025;-78
2023/01/16 01:21:21;;;;;;;21.02;3.80;;;8.40;99.90;;;7.15;100.00;98523.88;4136791;28;20030;-78
2023/01/16 01:23:22;;;;;;;17.27;3.28;;;8.20;99.90;;;7.15;100.00;98508.13;4153116;28;20030;-78
2023/01/16 01:25:24;;;;;;;20.52;3.58;;;8.00;99.90;;;7.03;100.00;98478.19;4165576;28;20078;-78
2023/01/16 01:27:25;;;;;;;17.67;4.03;;;8.00;99.90;;;7.15;100.00;98481.09;4167301;28;20025;-79
2023/01/16 01:29:26;;;;;;;17.52;2.95;;;8.00;99.90;;;7.10;100.00;98467.75;4154146;28;20061;-78
2023/01/16 01:31:27;;;;;;;13.77;3.03;;;8.00;99.90;;;6.99;100.00;98444.69;4154269;28;20049;-78
2023/01/16 01:33:28;;;;;;;16.95;2.92;;;7.90;99.90;;;6.87;100.00;98456.69;4152495;28;20587;-78
2023/01/16 01:35:29;;;;;;;21.85;3.85;;;7.90;99.90;;;6.96;100.00;98448.47;4152662;28;20026;-78
2023/01/16 01:37:29;;;;;;;18.27;3.83;;;7.90;99.90;;;7.00;100.00;98441.06;4163591;28;20105;-78
2023/01/16 01:39:31;;;;;;;17.02;2.65;;;7.90;99.90;;;7.15;100.00;98434.72;4152765;28;20057;-79
2023/01/16 01:41:32;;;;;;;14.60;3.25;;;8.00;99.90;;;7.22;100.00;98451.34;4152497;28;20022;-78
2023/01/16 01:43:49;;;;;;;11.10;2.42;;;8.00;99.90;;;7.04;100.00;98437.06;4153744;28;20037;-78
2023/01/16 01:45:55;;;;;;;21.27;2.70;;;8.00;99.90;;;7.11;100.00;98427.41;4154106;28;20041;-78
2023/01/16 01:48:08;;;;;;;15.30;2.55;;;8.00;99.90;;;7.06;100.00;98419.31;4157925;28;20048;-79
2023/01/16 01:50:33;;;;;;;14.38;2.90;;;8.00;99.90;;;6.94;100.00;98420.84;4153678;28;20038;-78
2023/01/16 01:52:34;;;;;;;14.85;4.47;;;7.90;99.90;;;7.28;100.00;98389.44;4138565;28;20080;-78
2023/01/16 01:54:48;;;;;;;21.83;3.28;;;8.00;99.90;;;7.05;100.00;98391.47;4153576;28;20038;-79
2023/01/16 01:57:06;;;;;;;14.85;2.92;;;8.00;99.90;;;6.98;100.00;98403.75;4152500;28;20537;-78
2023/01/16 01:59:15;;;;;;;15.52;3.03;;;7.90;99.90;;;7.05;100.00;98381.81;4152597;28;20033;-79
2023/01/16 02:01:16;;;;;;;18.67;2.75;;;7.90;99.90;;;7.08;100.00;98391.91;4151095;28;20022;-78
2023/01/16 02:03:27;;;;;;;24.88;4.85;;;7.90;99.90;;;7.00;100.00;98389.44;4141263;28;20440;-78
2023/01/16 02:05:37;;;;;;;19.42;4.47;;;7.90;99.90;;;6.96;100.00;98377.72;4152462;28;20113;-78
2023/01/16 02:07:38;;;;;;;20.42;4.45;;;7.90;99.90;;;7.06;100.00;98377.38;4156004;28;20025;-78
2023/01/16 02:09:39;;;;;;;18.98;3.60;;;7.90;99.90;;;6.97;100.00;98381.97;4136096;28;20564;-78
2023/01/16 02:12:00;;;;;;;19.73;3.88;;;7.90;99.90;;;7.01;100.00;98400.75;4153301;28;20057;-78
2023/01/16 02:14:11;;;;;;;17.23;3.42;;;7.90;99.90;;;7.06;100.00;98387.88;4153363;28;20398;-78
2023/01/16 02:21:43;;;;;;;23.23;4.55;;;7.90;99.90;;;6.88;100.00;98382.28;4153199;28;20109;-78
2023/01/16 02:24:41;;;;;;;18.05;3.17;;;7.80;99.90;;;6.88;100.00;98353.47;4122483;28;20172;-78
2023/01/16 02:26:57;;;;;;;18.50;3.80;;;7.80;99.90;;;6.85;100.00;98349.41;4146212;28;20029;-78
2023/01/16 02:29:33;;;;;;;17.52;4.13;;;7.80;99.90;;;6.79;100.00;98334.47;4151857;28;20030;-78
2023/01/16 02:31:48;;;;;;;15.73;2.67;;;7.80;99.90;;;6.90;100.00;98330.53;4152288;28;20030;-79
2023/01/16 02:34:11;;;;;;;16.73;2.63;;;7.80;99.90;;;6.95;100.00;98328.94;4152846;28;20037;-78
2023/01/16 02:36:24;;;;;;;15.30;2.92;;;7.80;99.90;;;6.94;100.00;98322.06;4155496;28;20080;-78
2023/01/16 02:38:46;;;;;;;11.27;3.72;;;7.80;99.90;;;6.86;100.00;98329.28;4156031;28;20033;-78
2023/01/16 02:41:20;;;;;;;14.20;2.08;;;7.70;99.90;;;6.85;100.00;98301.44;4153322;28;20033;-78
2023/01/16 02:43:33;;;;;;;12.30;1.80;;;7.70;99.90;;;6.71;100.00;98302.34;4153077;28;20493;-78
2023/01/16 02:46:39;;;;;;;13.30;3.28;;;7.60;99.90;;;6.52;100.00;98288.91;4153044;28;20022;-79
2023/01/16 02:48:58;;;;;;;10.63;2.23;;;7.60;99.90;;;6.67;100.00;98296.69;4147473;28;20449;-78
2023/01/16 02:51:05;;;;;;;14.00;2.50;;;7.50;99.90;;;6.66;100.00;98303.72;4151838;28;20648;-78
2023/01/16 02:53:26;;;;;;;13.15;3.40;;;7.60;99.90;;;6.82;100.00;98309.69;4151560;28;20033;-78
2023/01/16 02:55:41;;;;;;;16.00;3.08;;;7.60;99.90;;;6.85;100.00;98306.69;4151748;28;20037;-79
2023/01/16 02:57:48;;;;;;;11.35;2.90;;;7.70;99.90;;;6.90;100.00;98322.66;4156313;28;20068;-78
2023/01/16 02:59:50;;;;;;;20.67;3.08;;;7.70;99.90;;;6.92;100.00;98297.06;4151429;28;20068;-79
2023/01/16 03:01:51;;;;;;;9.10;2.60;;;7.70;99.90;;;6.84;100.00;98289.34;4152973;28;20030;-79
2023/01/16 03:03:55;;;;;;;8.98;2.45;;;7.70;99.90;;;6.83;100.00;98277.25;4151636;28;20489;-79
2023/01/16 03:06:08;;;;;;;11.57;3.25;;;7.70;99.90;;;7.04;100.00;98285.03;4153494;28;20030;-79
2023/01/16 03:08:33;;;;;;;12.63;2.55;;;7.80;99.90;;;6.94;100.00;98276.69;4151476;28;20462;-79
2023/01/16 03:11:22;;;;;;;11.27;2.13;;;7.90;99.90;;;7.15;100.00;98287.09;4136565;28;20035;-79
2023/01/16 03:13:48;;;;;;;11.73;1.75;;;8.00;99.90;;;6.95;100.00;98300.13;4151815;28;20026;-78
2023/01/16 03:16:19;;;;;;;6.03;2.35;;;7.90;99.90;;;6.86;100.00;98287.34;4152185;28;20037;-78
2023/01/16 03:18:51;;;;;;;7.78;2.08;;;7.80;99.90;;;6.77;100.00;98312.88;4142519;28;20529;-78
2023/01/16 03:21:17;;;;;;;4.03;1.02;;;7.60;99.90;;;6.73;100.00;98285.44;4151237;28;20022;-78
2023/01/16 03:23:31;;;;;;;6.68;1.50;;;7.60;99.90;;;6.70;100.00;98249.16;4152546;28;20049;-79
2023/01/16 03:25:52;;;;;;;13.32;1.52;;;7.50;99.90;;;6.69;100.00;98286.81;4152953;28;20029;-79
2023/01/16 03:28:14;;;;;;;9.25;2.05;;;7.50;99.90;;;6.54;100.00;98294.78;4141103;28;20105;-78
2023/01/16 03:30:36;;;;;;;7.40;1.38;;;7.50;99.90;;;6.54;100.00;98284.28;4152467;28;20026;-78
2023/01/16 03:33:07;;;;;;;7.15;1.38;;;7.40;99.90;;;6.62;100.00;98281.56;4152456;28;20034;-79
2023/01/16 03:35:27;;;;;;;13.52;2.20;;;7.40;99.90;;;6.70;100.00;98251.78;4151270;28;20093;-79
2023/01/16 03:37:41;;;;;;;11.90;2.85;;;7.50;99.90;;;6.66;100.00;98255.75;4159594;28;20022;-78
2023/01/16 03:39:49;;;;;;;15.48;2.38;;;7.60;99.90;;;6.60;100.00;98264.41;4151207;28;20030;-78
2023/01/16 03:41:55;;;;;;;15.93;2.38;;;7.50;99.90;;;6.64;100.00;98273.50;4150833;28;20113;-78
2023/01/16 03:44:03;;;;;;;14.77;2.28;;;7.50;99.90;;;6.71;100.00;98281.41;4151384;28;20088;-78
2023/01/16 03:46:12;;;;;;;14.38;3.13;;;7.60;99.90;;;6.79;100.00;98270.75;4152714;28;20506;-79
2023/01/16 03:48:29;;;;;;;11.32;2.67;;;7.60;99.90;;;6.83;100.00;98272.81;4138219;28;20129;-78
2023/01/16 03:50:32;;;;;;;15.23;2.50;;;7.70;99.90;;;6.66;100.00;98269.66;4152420;28;20033;-79
2023/01/16 03:52:44;;;;;;;12.40;2.30;;;7.60;99.90;;;6.87;100.00;98288.97;4152257;28;20072;-78
2023/01/16 03:55:23;;;;;;;5.57;1.55;;;7.70;99.90;;;6.81;100.00;98266.16;4135127;28;20049;-78
2023/01/16 03:57:57;;;;;;;14.13;1.90;;;7.70;99.90;;;6.62;100.00;98285.97;4155555;28;20034;-78
2023/01/16 04:00:00;;;;;;;13.13;2.58;;;7.60;99.90;;;6.72;100.00;98277.78;4151020;28;20030;-79
2023/01/16 04:02:30;;;;;;;8.48;1.67;;;7.60;99.90;;;6.59;100.00;98289.78;4151067;28;20034;-79
2023/01/16 04:04:57;;;;;;;5.63;1.40;;;7.60;99.90;;;6.57;100.00;98302.25;4152209;28;20022;-79
2023/01/16 04:07:40;;;;;;;10.15;2.35;;;7.60;99.90;;;6.82;100.00;98301.81;4152054;28;20018;-78
2023/01/16 04:09:53;;;;;;;11.75;2.05;;;7.60;99.90;;;6.72;100.00;98312.63;4111925;28;20030;-78
2023/01/16 04:11:55;;;;;;;9.40;1.42;;;7.70;99.90;;;6.71;100.00;98325.94;4153648;28;20108;-78
2023/01/16 04:14:00;;;;;;;12.63;2.40;;;7.60;99.90;;;6.83;100.00;98320.00;4155378;28;20056;-78
2023/01/16 04:16:05;;;;;;;8.35;2.25;;;7.70;99.90;;;6.84;100.00;98324.19;4155492;28;20022;-78
2023/01/16 04:18:06;;;;;;;4.75;1.38;;;7.70;99.90;;;6.90;100.00;98330.53;4164200;28;20537;-79
2023/01/16 04:20:09;;;;;;;8.40;2.92;;;7.70;99.90;;;6.87;100.00;98363.13;4154169;28;20556;-79
2023/01/16 04:22:24;;;;;;;13.07;2.08;;;7.80;99.90;;;6.87;100.00;98346.63;4136591;28;20613;-79
2023/01/16 04:24:25;;;;;;;9.43;1.52;;;7.80;99.90;;;6.77;100.00;98346.94;4146148;28;20037;-78
2023/01/16 04:26:26;;;;;;;4.97;1.13;;;7.70;99.90;;;6.71;100.00;98360.81;4148993;28;20022;-78
2023/01/16 04:28:27;;;;;;;6.40;1.30;;;7.60;99.90;;;6.71;100.00;98346.88;4160335;28;20036;-78
2023/01/16 04:30:28;;;;;;;7.05;0.82;;;7.60;99.90;;;6.70;100.00;98377.50;4153874;28;20029;-78
2023/01/16 04:32:29;;;;;;;4.20;1.70;;;7.60;99.90;;;6.78;100.00;98382.59;4154196;28;20041;-79
2023/01/16 04:34:29;;;;;;;6.30;0.95;;;7.60;99.90;;;6.66;100.00;98390.16;4152581;28;20520;-79
2023/01/16 04:36:31;;;;;;;7.25;1.42;;;7.60;99.90;;;6.67;100.00;98394.41;4158285;28;20013;-78
2023/01/16 04:38:31;;;;;;;6.15;1.30;;;7.60;99.90;;;6.67;100.00;98394.41;4156401;28;20057;-78
2023/01/16 04:40:32;;;;;;;3.22;1.08;;;7.60;99.90;;;6.65;100.00;98412.16;4153761;28;20477;-78
2023/01/16 04:42:33;;;;;;;5.07;0.60;;;7.60;99.90;;;6.68;100.00;98437.97;4152575;28;20022;-79
2023/01/16 04:44:34;;;;;;;3.13;0.80;;;7.70;99.90;;;6.73;100.00;98434.78;4154036;28;20038;-79
2023/01/16 04:46:37;;;;;;;4.18;0.50;;;7.60;99.90;;;6.63;100.00;98435.06;4158361;28;20049;-78
2023/01/16 04:48:38;;;;;;;1.87;0.50;;;7.60;99.90;;;6.61;100.00;98447.56;4152805;28;20481;-79
2023/01/16 04:50:39;;;;;;;4.18;0.77;;;7.60;99.90;;;6.59;100.00;98460.03;4152550;28;20281;-79
2023/01/16 04:52:41;;;;;;;4.35;0.80;;;7.60;99.90;;;6.55;100.00;98463.22;4153706;28;20511;-79
2023/01/16 04:54:42;;;;;;;2.50;0.50;;;7.60;99.90;;;6.60;100.00;98471.34;4152119;28;20026;-79
2023/01/16 04:56:43;;;;;;;2.80;0.52;;;7.60;99.90;;;6.56;100.00;98447.31;4156612;28;20021;-79
2023/01/16 04:58:44;;;;;;;6.82;0.85;;;7.50;99.90;;;6.54;100.00;98491.19;4152728;28;20026;-78
2023/01/16 05:00:45;;;;;;;2.97;0.95;;;7.50;99.90;;;6.57;100.00;98479.56;4153480;28;20599;-79
2023/01/16 05:02:46;;;;;;;1.85;0.50;;;7.50;99.90;;;6.41;100.00;98492.88;4152360;28;20053;-79
2023/01/16 05:04:47;;;;;;;0.93;0.40;;;7.50;99.90;;;6.45;100.00;98492.31;4152235;28;20018;-79
2023/01/16 05:06:48;;;;;;;0.82;0.30;;;7.40;99.90;;;6.40;100.00;98502.53;4153222;28;20084;-79
2023/01/16 05:08:49;;;;;;;1.17;0.47;;;7.40;99.90;;;6.21;100.00;98521.44;4153519;28;20057;-79
2023/01/16 05:10:50;;;;;;;1.92;0.40;;;7.20;99.90;;;6.31;100.00;98529.81;4153482;28;20042;-79
2023/01/16 05:12:50;;;;;;;1.95;0.40;;;7.10;99.90;;;6.25;100.00;98527.91;4153639;28;20037;-78
2023/01/16 05:14:51;;;;;;;2.45;0.40;;;7.10;99.90;;;6.21;100.00;98531.91;4153378;28;20045;-79
2023/01/16 05:16:52;;;;;;;1.23;0.30;;;7.10;99.90;;;6.23;100.00;98535.16;4112564;28;1322815;-78
2023/01/16 05:18:53;;;;;;;2.80;0.32;;;7.20;99.90;;;6.18;100.00;98526.22;4158988;28;20033;-79
2023/01/16 05:20:55;;;;;;;5.60;0.60;;;7.20;99.90;;;6.31;100.00;98550.75;4152635;28;20401;-79
2023/01/16 05:22:56;;;;;;;3.05;0.85;;;7.20;99.90;;;6.31;100.00;98555.19;4154439;28;20022;-79
2023/01/16 05:24:57;;;;;;;2.17;0.50;;;7.20;99.90;;;6.42;100.00;98558.13;4161968;28;20032;-79
2023/01/16 05:26:58;;;;;;;3.67;0.82;;;7.30;99.90;;;6.23;100.00;98553.47;4163834;28;20029;-79
2023/01/16 05:28:59;;;;;;;3.42;0.30;;;7.30;99.90;;;6.36;100.00;98566.72;4155646;28;20089;-78
2023/01/16 05:31:00;;;;;;;1.48;0.65;;;7.30;99.90;;;6.37;100.00;98557.88;4136688;28;20161;-79
2023/01/16 05:33:02;;;;;;;0.77;0.30;;;7.30;99.90;;;6.21;100.00;98573.81;4136715;28;20049;-79
2023/01/16 05:35:03;;;;;;;1.17;0.57;;;7.20;99.90;;;6.29;100.00;98567.66;4152816;28;20060;-79
2023/01/16 05:37:04;;;;;;;1.20;0.35;;;7.20;99.90;;;6.28;100.00;98579.91;4159242;28;20020;-79
2023/01/16 05:39:05;;;;;;;3.85;0.52;;;7.20;99.90;;;6.32;100.00;98588.22;4154219;28;20049;-78
2023/01/16 05:41:06;;;;;;;1.42;0.50;;;7.20;99.90;;;6.19;100.00;98594.09;4153758;28;20100;-79
2023/01/16 05:43:07;;;;;;;1.50;0.70;;;7.20;99.90;;;6.18;100.00;98604.75;4152661;28;20030;-79
2023/01/16 05:45:09;;;;;;;2.15;0.45;;;7.20;99.90;;;6.09;100.00;98598.81;4153731;28;20025;-79
2023/01/16 05:47:09;;;;;;;0.82;0.45;;;7.10;99.90;;;6.12;100.00;98619.38;4157066;28;20064;-79
2023/01/16 05:49:10;;;;;;;1.05;0.30;;;7.10;99.90;;;6.00;100.00;98624.22;4154007;28;20029;-79
2023/01/16 05:51:12;;;;;;;1.70;0.40;;;7.10;99.90;;;5.83;100.00;98621.91;4153734;28;20523;-79
2023/01/16 05:53:12;;;;;;;1.13;0.55;;;7.00;99.90;;;5.93;100.00;98625.13;4152410;28;20041;-79
2023/01/16 05:55:13;;;;;;;1.48;0.35;;;6.90;99.90;;;5.72;100.00;98623.16;4153465;28;20093;-79
2023/01/16 05:57:14;;;;;;;1.15;0.40;;;6.80;99.90;;;5.64;100.00;98635.50;4155447;28;20013;-79
2023/01/16 05:59:15;;;;;;;3.05;0.55;;;6.70;99.90;;;5.66;100.00;98654.44;4153703;28;20029;-79
2023/01/16 06:01:16;;;;;;;1.02;0.30;;;6.70;99.90;;;5.58;100.00;98626.56;4153510;28;20022;-79
2023/01/16 06:03:17;;;;;;;0.98;0.38;;;6.60;99.90;;;5.64;100.00;98667.69;4152612;28;20079;-79
2023/01/16 06:05:18;;;;;;;3.00;0.40;;;6.60;99.90;;;5.58;100.00;98660.53;4153803;28;20030;-79
2023/01/16 06:07:19;;;;;;;2.30;0.47;;;6.60;99.90;;;5.63;100.00;98660.00;4163056;28;20030;-79
2023/01/16 06:09:20;;;;;;;0.73;0.30;;;6.60;99.90;;;5.58;100.00;98669.19;4156349;28;20025;-79
2023/01/16 06:11:21;;;;;;;2.13;0.40;;;6.50;99.90;;;5.51;100.00;98660.44;4153356;28;20079;-79
2023/01/16 06:13:21;;;;;;;1.38;0.50;;;6.50;99.90;;;5.60;100.00;98666.41;4152392;28;20030;-79
2023/01/16 06:15:23;;;;;;;1.27;0.43;;;6.60;99.90;;;5.58;100.00;98679.63;4153036;28;20405;-78
2023/01/16 06:17:24;;;;;;;3.30;0.75;;;6.60;99.90;;;5.68;100.00;98684.63;4161804;28;20045;-79
2023/01/16 06:19:25;;;;;;;0.93;0.40;;;6.60;99.90;;;5.54;100.00;98691.47;4152414;28;20037;-79
2023/01/16 06:21:26;;;;;;;1.17;0.50;;;6.60;99.90;;;5.62;100.00;98679.28;4152229;28;20371;-79
2023/01/16 06:23:27;;;;;;;1.85;0.30;;;6.60;99.90;;;5.69;100.00;98688.06;4152142;28;20040;-78
2023/01/16 06:25:27;;;;;;;3.17;0.30;;;6.60;99.90;;;5.56;100.00;98696.50;4166030;28;20021;-79
2023/01/16 06:27:29;;;;;;;2.28;0.70;;;6.60;99.90;;;5.60;100.00;98708.25;4159264;28;20057;-79
2023/01/16 06:29:30;;;;;;;3.00;0.50;;;6.60;99.90;;;5.53;100.00;98713.34;4153273;28;20516;-79
2023/01/16 06:31:30;;;;;;;1.23;0.40;;;6.60;99.90;;;5.45;100.00;98695.13;4151968;28;20026;-79
2023/01/16 06:33:31;;;;;;;1.75;0.88;;;6.50;99.90;;;5.40;100.00;98713.13;4151276;28;20048;-79
2023/01/16 06:35:34;;;;;;;3.47;1.00;;;6.50;99.90;;;5.42;100.00;98719.00;4152145;28;20106;-79
2023/01/16 06:37:34;;;;;;;3.25;0.52;;;6.50;99.90;;;5.38;100.00;98714.25;4157767;28;20104;-79
2023/01/16 06:39:35;;;;;;;2.00;0.50;;;6.40;99.90;;;5.49;100.00;98725.16;4151922;28;20080;-79
2023/01/16 06:41:36;;;;;;;4.63;0.57;;;6.50;99.90;;;5.39;100.00;98727.19;4151614;28;20026;-79
2023/01/16 06:43:37;;;;;;;2.35;0.50;;;6.50;99.90;;;5.43;100.00;98728.47;4151770;28;20064;-78
2023/01/16 06:45:38;;;;;;;1.10;0.45;;;6.40;99.90;;;5.27;100.00;98738.19;4152833;28;20026;-79
2023/01/16 06:47:39;;;;;;;1.73;0.70;;;6.30;99.90;;;5.29;100.00;98752.72;4155397;28;20037;-79
2023/01/16 06:49:40;;;;;;;2.70;0.35;;;6.30;99.90;;;5.30;100.00;98758.75;4151659;28;20021;-79
2023/01/16 06:51:42;;;;;;;1.08;0.63;;;6.30;99.90;;;5.13;100.00;98758.03;4152701;28;20049;-79
2023/01/16 06:53:43;;;;;;;0.43;0.22;;;6.20;99.90;;;5.13;100.00;98758.03;4152777;28;20049;-79
2023/01/16 06:55:44;;;;;;;0.85;0.40;;;6.20;99.90;;;5.16;100.00;98773.38;4153973;28;20026;-79
2023/01/16 06:57:45;;;;;;;1.42;0.40;;;6.10;99.90;;;5.09;100.00;98774.19;4157349;28;20029;-79
2023/01/16 06:59:46;;;;;;;3.20;0.43;;;6.10;99.90;;;5.08;100.00;98778.59;4135131;28;20510;-79
2023/01/16 07:01:47;;;;;;;1.80;0.60;;;6.10;99.90;;;4.93;100.00;98778.50;4152960;28;20026;-79
2023/01/16 07:03:48;;;;;;;1.05;0.43;;;6.00;99.90;;;4.97;100.00;98790.25;4151546;28;20485;-79
2023/01/16 07:05:49;;;;;;;2.55;0.60;;;6.00;99.90;;;4.95;100.00;98794.00;4151477;28;20030;-79
2023/01/16 07:07:50;;;;;;;2.33;0.98;;;5.90;99.90;;;5.01;100.00;98795.97;4134992;28;20062;-79
2023/01/16 07:09:51;;;;;;;1.75;0.80;;;5.90;99.90;;;4.84;100.00;98800.41;4139515;28;20085;-78
2023/01/16 07:11:52;;;;;;;2.40;0.50;;;5.90;99.90;;;4.71;100.00;98794.06;4152485;28;20041;-80
2023/01/16 07:22:34;;;;;;;3.67;0.68;;;5.80;99.90;;;4.74;100.00;98798.97;4135016;28;20022;-79
2023/01/16 07:23:32;;;;;;;1.63;0.52;;;5.70;99.90;;;4.77;100.00;98817.72;4151752;28;20092;-78
2023/01/16 07:25:34;;;;;;;2.63;0.82;;;5.70;99.90;;;4.79;100.00;98822.78;4152328;28;20489;-79
2023/01/16 07:27:36;;;;;;;2.38;0.50;;;5.70;99.90;;;4.84;100.00;98820.47;4164421;28;20545;-78
2023/01/16 07:29:37;;;;;;;1.98;0.50;;;5.80;99.90;;;4.91;100.00;98827.50;4151393;28;20033;-79
2023/01/16 07:31:39;;;;;;;2.60;0.75;;;5.90;99.90;;;4.89;100.00;98821.63;4134696;28;20025;-78
2023/01/16 07:33:39;;;;;;;5.18;1.20;;;5.90;99.90;;;4.91;100.00;98837.13;4151216;28;20037;-78
2023/01/16 07:35:40;;;;;;;3.22;1.27;;;5.90;99.90;;;5.01;100.00;98854.25;4135046;28;20022;-78
2023/01/16 07:37:42;;;;;;;2.53;1.02;;;5.90;99.90;;;5.10;100.00;98852.44;4162415;28;20026;-79
2023/01/16 07:39:43;;;;;;;3.70;0.90;;;6.00;99.90;;;5.02;100.00;98852.44;4152389;28;20018;-78
2023/01/16 07:41:45;;;;;;;3.90;0.77;;;6.00;99.90;;;5.01;100.00;98846.41;4150932;28;20029;-78
2023/01/16 07:43:45;;;;;;;4.18;0.70;;;6.00;99.90;;;4.90;100.00;98853.75;4151334;28;20404;-78
2023/01/16 07:45:51;;;;;;;6.38;0.93;;;6.00;99.90;;;5.02;100.00;98850.66;4155097;28;20041;-79
2023/01/16 07:47:52;;;;;;;3.33;0.65;;;5.90;99.90;;;5.08;100.00;98857.00;4161572;28;20017;-78
2023/01/16 07:49:53;;;;;;;3.97;0.80;;;6.00;99.90;;;5.05;100.00;98854.72;4155521;28;20057;-78
2023/01/16 07:51:54;;;;;;;3.60;0.60;;;6.00;99.90;;;5.03;100.00;98847.06;4154699;28;20025;-78
2023/01/16 07:53:55;;;;;;;3.00;0.60;;;6.00;99.90;;;5.01;100.00;98851.66;4154435;28;20394;-78
2023/01/16 07:55:59;;;;;;;3.10;0.60;;;6.00;99.90;;;4.99;100.00;98864.03;4157300;28;20022;-78
2023/01/16 07:58:00;;;;;;;3.88;0.60;;;6.00;99.90;;;4.98;100.00;98861.63;4157077;28;20029;-78
2023/01/16 08:00:01;;;;;;;4.00;0.88;;;6.00;99.90;;;5.01;100.00;98863.88;4154238;28;20026;-78
2023/01/16 08:02:02;;;;;;;6.15;0.50;;;6.00;99.90;;;5.03;100.00;98870.56;4154336;28;20437;-78
2023/01/16 08:04:03;;;;;;;2.60;0.68;;;6.00;99.90;;;5.00;100.00;98872.69;4155443;28;20029;-78
2023/01/16 08:06:04;;;;;;;5.65;1.48;;;6.00;99.90;;;4.97;100.00;98862.59;4156599;28;20044;-78
2023/01/16 08:08:05;;;;;;;1.35;0.80;;;6.00;99.90;;;4.90;100.00;98866.81;4154161;28;20123;-78
2023/01/16 08:10:07;;;;;;;3.20;0.68;;;5.90;99.90;;;4.97;100.00;98871.25;4154252;28;20041;-78
2023/01/16 08:12:07;;;;;;;4.68;0.82;;;5.90;99.90;;;4.99;100.00;98871.88;4155088;28;20102;-78
2023/01/16 08:14:08;;;;;;;3.17;0.73;;;6.00;99.90;;;4.99;100.00;98882.34;4154041;28;20038;-79
2023/01/16 08:16:09;;;;;;;3.42;1.13;;;6.00;99.90;;;4.96;100.00;98893.13;4154934;28;20018;-78
2023/01/16 08:18:12;;;;;;;2.58;1.08;;;5.90;99.90;;;4.97;100.00;98888.72;4155094;28;20081;-79
2023/01/16 08:20:13;;;;;;;2.70;0.70;;;5.90;99.90;;;4.93;100.00;98901.28;4137857;28;20030;-78
2023/01/16 08:22:14;;;;;;;3.53;0.60;;;5.90;99.90;;;4.82;100.00;98904.25;4153861;28;20072;-79
2023/01/16 08:24:15;;;;;;;3.58;0.82;;;5.90;99.90;;;4.89;100.00;98907.00;4156887;28;20029;-78
2023/01/16 08:26:16;;;;;;;4.88;0.88;;;5.90;99.90;;;4.83;100.00;98898.03;4169626;28;20029;-79
2023/01/16 08:28:17;;;;;;;3.60;0.90;;;5.90;99.90;;;4.75;100.00;98915.53;4161260;28;20072;-79
2023/01/16 08:30:18;;;;;;;3.28;0.70;;;5.80;99.90;;;4.68;100.00;98924.97;4153899;28;20040;-78
2023/01/16 08:32:19;;;;;;;4.72;1.60;;;5.80;99.90;;;4.67;100.00;98920.72;4153684;28;20037;-79
2023/01/16 08:34:20;;;;;;;2.47;0.77;;;5.70;99.90;;;4.63;100.00;98933.28;4153791;28;20034;-78
2023/01/16 08:36:21;;;;;;;4.90;0.60;;;5.70;99.90;;;4.69;100.00;98940.47;4158473;28;20036;-78
2023/01/16 08:38:22;;;;;;;3.20;0.95;;;5.70;99.90;;;4.66;100.00;98924.34;4158345;28;20098;-79
2023/01/16 08:40:24;;;;;;;3.60;0.50;;;5.70;99.90;;;4.68;100.00;98935.41;4153568;28;20027;-78
2023/01/16 08:52:01;;;;;;;3.30;0.98;;;6.10;99.90;;;5.22;100.00;98971.34;4154037;28;20040;-78
2023/01/16 08:54:02;;;;;;;3.83;1.13;;;6.20;99.90;;;5.31;100.00;98967.72;4153462;28;20537;-79
2023/01/16 08:56:03;;;;;;;2.90;0.70;;;6.30;99.90;;;5.30;100.00;98973.94;4155835;28;20030;-78
2023/01/16 08:58:05;;;;;;;2.47;0.88;;;6.30;99.90;;;5.17;100.00;98975.44;4140253;28;20078;-79
2023/01/16 09:00:08;;;;;;;1.10;0.60;;;6.20;99.90;;;4.98;100.00;98981.78;4153925;28;20042;-78
2023/01/16 09:02:11;;;;;;;2.70;0.80;;;6.10;99.90;;;4.93;100.00;98987.50;4153707;28;20033;-79
2023/01/16 09:04:12;;;;;;;2.55;0.70;;;6.00;99.90;;;4.92;100.00;98974.63;4153456;28;20033;-79
2023/01/16 09:06:13;;;;;;;1.92;0.75;;;5.90;99.90;;;4.94;100.00;98991.75;4139909;28;20025;-79
2023/01/16 09:08:14;;;;;;;5.80;2.33;;;5.90;99.90;;;4.97;100.00;98995.84;4154668;28;20029;-79
2023/01/16 09:10:15;;;;;;;3.58;0.82;;;5.90;99.90;;;5.07;100.00;98998.28;4154521;28;20095;-78
2023/01/16 09:14:36;;;;;;;1.80;0.60;;;6.10;99.90;;;5.26;100.00;98997.94;4153326;28;20125;-79